sensor_id;sensor_type;location;lat;lon;timestamp;noise_LAeq;noise_LA_min;noise_LA_max;noise_LA01;noise_LA95
45651;Laerm;31365;48.858;8.530;2023-03-16T00:03:06;40.12;35.36;43.72;;
45651;Laerm;31365;48.858;8.530;2023-03-16T00:26:26;53.43;35.94;72.27;;
45651;Laerm;31365;48.858;8.530;2023-03-16T00:29:32;40.17;36.91;43.24;;
45651;Laerm;31365;48.858;8.530;2023-03-16T00:33:40;53.15;36.45;72.75;;
45651;Laerm;31365;48.858;8.530;2023-03-16T00:37:02;55.77;35.94;76.96;;
45651;Laerm;31365;48.858;8.530;2023-03-16T00:40:37;39.88;34.69;45.39;;
45651;Laerm;31365;48.858;8.530;2023-03-16T01:10:52;38.95;34.31;41.96;;
45651;Laerm;31365;48.858;8.530;2023-03-16T01:14:51;38.70;33.44;41.53;;
45651;Laerm;31365;48.858;8.530;2023-03-16T01:18:51;39.34;34.31;42.47;;
45651;Laerm;31365;48.858;8.530;2023-03-16T01:39:53;42.47;35.36;62.72;;
45651;Laerm;31365;48.858;8.530;2023-03-16T01:44:19;55.42;35.01;76.42;;
45651;Laerm;31365;48.858;8.530;2023-03-16T01:48:35;48.76;33.90;68.74;;
45651;Laerm;31365;48.858;8.530;2023-03-16T01:57:18;55.75;35.36;79.07;;
45651;Laerm;31365;48.858;8.530;2023-03-16T02:02:05;40.11;35.04;48.26;;
45651;Laerm;31365;48.858;8.530;2023-03-16T02:06:29;39.53;34.31;43.24;;
45651;Laerm;31365;48.858;8.530;2023-03-16T02:11:24;39.08;34.31;43.24;;
45651;Laerm;31365;48.858;8.530;2023-03-16T02:43:26;49.99;36.45;72.65;;
45651;Laerm;31365;48.858;8.530;2023-03-16T02:47:47;40.12;35.66;43.44;;
45651;Laerm;31365;48.858;8.530;2023-03-16T02:51:05;40.27;36.45;43.49;;
45651;Laerm;31365;48.858;8.530;2023-03-16T02:54:59;40.63;36.91;44.62;;
45651;Laerm;31365;48.858;8.530;2023-03-16T06:12:13;64.84;42.53;83.59;;
45651;Laerm;31365;48.858;8.530;2023-03-16T06:20:32;65.88;42.22;79.56;;
45651;Laerm;31365;48.858;8.530;2023-03-16T06:23:57;67.32;45.86;92.45;;
45651;Laerm;31365;48.858;8.530;2023-03-16T06:26:27;67.11;49.34;78.21;;
45651;Laerm;31365;48.858;8.530;2023-03-16T06:29:10;63.80;44.07;76.91;;
45651;Laerm;31365;48.858;8.530;2023-03-16T06:31:40;66.84;44.27;78.10;;
45651;Laerm;31365;48.858;8.530;2023-03-16T06:34:10;66.67;44.39;82.65;;
45651;Laerm;31365;48.858;8.530;2023-03-16T06:36:41;66.10;42.88;77.64;;
45651;Laerm;31365;48.858;8.530;2023-03-16T06:39:12;68.14;43.99;84.86;;
45651;Laerm;31365;48.858;8.530;2023-03-16T06:41:45;67.26;43.72;86.42;;
45651;Laerm;31365;48.858;8.530;2023-03-16T06:44:15;65.41;43.24;79.92;;
45651;Laerm;31365;48.858;8.530;2023-03-16T06:46:55;66.06;43.68;82.08;;
45651;Laerm;31365;48.858;8.530;2023-03-16T06:49:24;68.26;44.07;86.30;;
45651;Laerm;31365;48.858;8.530;2023-03-16T06:51:54;64.67;42.09;77.71;;
45651;Laerm;31365;48.858;8.530;2023-03-16T06:54:25;65.39;44.83;77.97;;
45651;Laerm;31365;48.858;8.530;2023-03-16T06:56:53;67.59;49.56;80.65;;
45651;Laerm;31365;48.858;8.530;2023-03-16T06:59:22;66.11;46.13;82.63;;
45651;Laerm;31365;48.858;8.530;2023-03-16T07:01:52;64.67;43.72;78.71;;
45651;Laerm;31365;48.858;8.530;2023-03-16T07:04:20;64.86;41.38;77.99;;
45651;Laerm;31365;48.858;8.530;2023-03-16T07:06:49;67.95;43.81;90.44;;
45651;Laerm;31365;48.858;8.530;2023-03-16T07:09:19;64.84;43.14;81.29;;
45651;Laerm;31365;48.858;8.530;2023-03-16T07:11:48;67.57;44.83;80.76;;
45651;Laerm;31365;48.858;8.530;2023-03-16T07:14:17;66.05;44.90;78.23;;
45651;Laerm;31365;48.858;8.530;2023-03-16T07:16:51;65.77;45.63;81.73;;
45651;Laerm;31365;48.858;8.530;2023-03-16T07:19:21;67.18;45.91;82.95;;
45651;Laerm;31365;48.858;8.530;2023-03-16T07:21:52;64.51;44.23;79.69;;
45651;Laerm;31365;48.858;8.530;2023-03-16T07:24:23;64.51;44.23;79.69;;
45651;Laerm;31365;48.858;8.530;2023-03-16T07:26:53;63.51;42.93;80.22;;
45651;Laerm;31365;48.858;8.530;2023-03-16T07:29:27;66.66;45.04;82.74;;
45651;Laerm;31365;48.858;8.530;2023-03-16T07:31:56;65.33;43.44;78.72;;
45651;Laerm;31365;48.858;8.530;2023-03-16T07:34:32;63.32;43.04;80.03;;
45651;Laerm;31365;48.858;8.530;2023-03-16T07:37:01;61.93;41.53;76.14;;
45651;Laerm;31365;48.858;8.530;2023-03-16T07:39:33;64.57;46.33;77.33;;
45651;Laerm;31365;48.858;8.530;2023-03-16T07:42:09;64.06;42.29;80.00;;
45651;Laerm;31365;48.858;8.530;2023-03-16T07:45:05;62.44;41.96;77.24;;
45651;Laerm;31365;48.858;8.530;2023-03-16T07:47:34;63.79;44.23;79.59;;
45651;Laerm;31365;48.858;8.530;2023-03-16T07:50:11;64.25;42.35;77.46;;
45651;Laerm;31365;48.858;8.530;2023-03-16T07:52:43;66.96;43.34;83.54;;
45651;Laerm;31365;48.858;8.530;2023-03-16T07:55:15;67.16;45.30;88.47;;
45651;Laerm;31365;48.858;8.530;2023-03-16T07:57:45;62.51;41.38;78.32;;
45651;Laerm;31365;48.858;8.530;2023-03-16T08:00:19;64.53;41.38;81.18;;
45651;Laerm;31365;48.858;8.530;2023-03-16T08:02:51;67.51;47.04;82.51;;
45651;Laerm;31365;48.858;8.530;2023-03-16T08:10:28;63.53;41.22;83.38;;
45651;Laerm;31365;48.858;8.530;2023-03-16T08:13:04;64.50;42.53;78.38;;
45651;Laerm;31365;48.858;8.530;2023-03-16T08:15:35;65.14;42.22;87.92;;
45651;Laerm;31365;48.858;8.530;2023-03-16T08:18:10;63.66;42.16;75.20;;
45651;Laerm;31365;48.858;8.530;2023-03-16T08:20:39;65.73;42.47;82.32;;
45651;Laerm;31365;48.858;8.530;2023-03-16T08:23:08;64.26;42.65;79.91;;
45651;Laerm;31365;48.858;8.530;2023-03-16T08:25:41;63.26;40.62;76.84;;
45651;Laerm;31365;48.858;8.530;2023-03-16T08:28:14;64.48;40.80;77.70;;
45651;Laerm;31365;48.858;8.530;2023-03-16T08:30:45;64.51;43.77;78.17;;
45651;Laerm;31365;48.858;8.530;2023-03-16T08:33:24;66.15;40.80;83.04;;
45651;Laerm;31365;48.858;8.530;2023-03-16T08:35:54;64.63;43.68;75.93;;
45651;Laerm;31365;48.858;8.530;2023-03-16T08:38:23;61.89;39.58;76.47;;
45651;Laerm;31365;48.858;8.530;2023-03-16T08:40:53;63.87;42.09;79.34;;
45651;Laerm;31365;48.858;8.530;2023-03-16T08:43:23;64.56;41.14;79.76;;
45651;Laerm;31365;48.858;8.530;2023-03-16T08:45:53;64.37;42.98;78.76;;
45651;Laerm;31365;48.858;8.530;2023-03-16T08:48:26;63.87;42.88;80.42;;
45651;Laerm;31365;48.858;8.530;2023-03-16T08:50:55;64.29;42.47;76.96;;
45651;Laerm;31365;48.858;8.530;2023-03-16T08:53:24;64.40;44.56;77.29;;
45651;Laerm;31365;48.858;8.530;2023-03-16T08:56:01;62.14;41.14;79.07;;
45651;Laerm;31365;48.858;8.530;2023-03-16T08:58:31;60.88;40.23;77.34;;
45651;Laerm;31365;48.858;8.530;2023-03-16T09:01:01;64.21;43.72;77.08;;
45651;Laerm;31365;48.858;8.530;2023-03-16T09:03:32;62.93;42.16;77.46;;
45651;Laerm;31365;48.858;8.530;2023-03-16T09:06:03;64.97;44.27;79.05;;
45651;Laerm;31365;48.858;8.530;2023-03-16T09:08:32;66.54;43.90;80.86;;
45651;Laerm;31365;48.858;8.530;2023-03-16T09:11:06;64.85;42.98;77.44;;
45651;Laerm;31365;48.858;8.530;2023-03-16T09:13:36;60.74;40.27;76.94;;
45651;Laerm;31365;48.858;8.530;2023-03-16T09:16:08;66.67;44.11;80.99;;
45651;Laerm;31365;48.858;8.530;2023-03-16T09:18:39;65.31;44.62;80.11;;
45651;Laerm;31365;48.858;8.530;2023-03-16T09:21:10;62.74;40.13;79.02;;
45651;Laerm;31365;48.858;8.530;2023-03-16T09:23:40;64.23;40.98;77.03;;
45651;Laerm;31365;48.858;8.530;2023-03-16T09:26:12;60.18;41.89;79.54;;
45651;Laerm;31365;48.858;8.530;2023-03-16T09:28:41;62.08;40.98;76.07;;
45651;Laerm;31365;48.858;8.530;2023-03-16T09:31:16;67.76;41.53;87.26;;
45651;Laerm;31365;48.858;8.530;2023-03-16T09:33:46;62.19;41.82;75.15;;
45651;Laerm;31365;48.858;8.530;2023-03-16T09:36:15;62.20;40.71;76.92;;
45651;Laerm;31365;48.858;8.530;2023-03-16T09:38:44;70.70;43.29;89.50;;
45651;Laerm;31365;48.858;8.530;2023-03-16T09:41:37;63.60;43.49;81.37;;
45651;Laerm;31365;48.858;8.530;2023-03-16T09:44:33;62.63;41.89;77.26;;
45651;Laerm;31365;48.858;8.530;2023-03-16T09:47:09;62.40;41.61;77.03;;
45651;Laerm;31365;48.858;8.530;2023-03-16T09:49:44;61.76;41.46;76.41;;
45651;Laerm;31365;48.858;8.530;2023-03-16T09:52:24;66.30;44.62;84.03;;
45651;Laerm;31365;48.858;8.530;2023-03-16T09:55:03;63.70;42.41;77.42;;
45651;Laerm;31365;48.858;8.530;2023-03-16T09:57:40;63.82;40.71;78.34;;
45651;Laerm;31365;48.858;8.530;2023-03-16T10:00:17;59.41;39.34;75.89;;
45651;Laerm;31365;48.858;8.530;2023-03-16T10:05:38;61.50;39.58;79.96;;
45651;Laerm;31365;48.858;8.530;2023-03-16T10:08:14;64.79;40.62;83.14;;
45651;Laerm;31365;48.858;8.530;2023-03-16T10:11:03;61.38;40.71;77.53;;
45651;Laerm;31365;48.858;8.530;2023-03-16T10:13:40;64.41;43.49;78.45;;
45651;Laerm;31365;48.858;8.530;2023-03-16T10:16:16;64.22;44.11;85.68;;
45651;Laerm;31365;48.858;8.530;2023-03-16T10:18:48;63.56;43.04;77.94;;
45651;Laerm;31365;48.858;8.530;2023-03-16T10:21:22;71.51;42.76;88.04;;
45651;Laerm;31365;48.858;8.530;2023-03-16T10:23:54;63.30;41.68;81.01;;
45651;Laerm;31365;48.858;8.530;2023-03-16T10:26:37;61.91;41.46;78.95;;
45651;Laerm;31365;48.858;8.530;2023-03-16T10:29:11;62.08;42.53;75.61;;
45651;Laerm;31365;48.858;8.530;2023-03-16T10:31:41;65.15;43.29;82.73;;
45651;Laerm;31365;48.858;8.530;2023-03-16T10:34:10;62.26;40.62;74.55;;
45651;Laerm;31365;48.858;8.530;2023-03-16T10:36:43;61.44;40.98;76.31;;
45651;Laerm;31365;48.858;8.530;2023-03-16T10:39:14;63.61;43.24;78.31;;
45651;Laerm;31365;48.858;8.530;2023-03-16T10:41:46;62.81;44.03;78.42;;
45651;Laerm;31365;48.858;8.530;2023-03-16T10:44:25;60.02;38.60;74.73;;
45651;Laerm;31365;48.858;8.530;2023-03-16T10:47:00;61.23;41.14;74.05;;
45651;Laerm;31365;48.858;8.530;2023-03-16T10:49:37;61.09;40.23;79.89;;
45651;Laerm;31365;48.858;8.530;2023-03-16T10:52:16;64.43;41.30;77.14;;
45651;Laerm;31365;48.858;8.530;2023-03-16T10:54:50;66.42;41.68;84.62;;
45651;Laerm;31365;48.858;8.530;2023-03-16T10:57:24;59.03;39.46;74.68;;
45651;Laerm;31365;48.858;8.530;2023-03-16T10:59:58;60.66;39.92;77.10;;
45651;Laerm;31365;48.858;8.530;2023-03-16T11:02:33;66.81;39.81;94.56;;
45651;Laerm;31365;48.858;8.530;2023-03-16T11:07:47;62.10;40.89;77.49;;
45651;Laerm;31365;48.858;8.530;2023-03-16T11:10:30;62.94;42.35;75.48;;
45651;Laerm;31365;48.858;8.530;2023-03-16T11:13:12;63.56;42.53;81.33;;
45651;Laerm;31365;48.858;8.530;2023-03-16T11:16:33;61.85;40.80;78.02;;
45651;Laerm;31365;48.858;8.530;2023-03-16T11:32:49;62.01;38.52;79.24;;
45651;Laerm;31365;48.858;8.530;2023-03-16T13:55:16;60.26;39.70;77.39;;
45651;Laerm;31365;48.858;8.530;2023-03-16T13:57:47;59.45;40.71;73.98;;
45651;Laerm;31365;48.858;8.530;2023-03-16T14:00:17;59.92;40.23;73.15;;
45651;Laerm;31365;48.858;8.530;2023-03-16T14:02:51;60.42;39.21;75.91;;
45651;Laerm;31365;48.858;8.530;2023-03-16T14:05:22;60.45;40.89;76.27;;
45651;Laerm;31365;48.858;8.530;2023-03-16T14:07:51;60.14;40.43;74.38;;
45651;Laerm;31365;48.858;8.530;2023-03-16T14:10:21;57.83;40.80;70.95;;
45651;Laerm;31365;48.858;8.530;2023-03-16T14:12:52;61.68;42.35;77.32;;
45651;Laerm;31365;48.858;8.530;2023-03-16T14:15:21;61.53;40.80;79.41;;
45651;Laerm;31365;48.858;8.530;2023-03-16T14:17:52;60.02;40.71;75.01;;
45651;Laerm;31365;48.858;8.530;2023-03-16T14:20:21;61.87;41.26;73.05;;
45651;Laerm;31365;48.858;8.530;2023-03-16T14:22:52;60.41;40.23;71.57;;
45651;Laerm;31365;48.858;8.530;2023-03-16T14:25:24;62.27;40.80;77.06;;
45651;Laerm;31365;48.858;8.530;2023-03-16T14:27:58;64.25;43.72;82.60;;
45651;Laerm;31365;48.858;8.530;2023-03-16T14:30:28;61.40;39.58;75.08;;
45651;Laerm;31365;48.858;8.530;2023-03-16T14:32:58;62.43;42.71;73.59;;
45651;Laerm;31365;48.858;8.530;2023-03-16T14:35:28;67.29;40.89;88.15;;
45651;Laerm;31365;48.858;8.530;2023-03-16T14:38:19;65.18;41.75;80.80;;
45651;Laerm;31365;48.858;8.530;2023-03-16T14:40:53;65.51;42.16;83.94;;
45651;Laerm;31365;48.858;8.530;2023-03-16T14:43:27;67.33;41.41;86.50;;
45651;Laerm;31365;48.858;8.530;2023-03-16T14:45:56;64.55;43.58;79.66;;
45651;Laerm;31365;48.858;8.530;2023-03-16T14:48:26;64.73;44.11;81.06;;
45651;Laerm;31365;48.858;8.530;2023-03-16T14:50:56;63.95;41.30;79.47;;
45651;Laerm;31365;48.858;8.530;2023-03-16T14:53:25;62.82;40.03;73.26;;
45651;Laerm;31365;48.858;8.530;2023-03-16T14:55:55;67.18;49.93;81.45;;
45651;Laerm;31365;48.858;8.530;2023-03-16T14:58:24;65.11;46.33;83.33;;
45651;Laerm;31365;48.858;8.530;2023-03-16T15:00:53;64.48;42.65;81.79;;
45651;Laerm;31365;48.858;8.530;2023-03-16T15:03:29;63.50;41.96;76.61;;
45651;Laerm;31365;48.858;8.530;2023-03-16T15:05:59;63.56;42.82;80.29;;
45651;Laerm;31365;48.858;8.530;2023-03-16T15:08:29;63.18;41.96;75.19;;
45651;Laerm;31365;48.858;8.530;2023-03-16T15:11:02;63.91;45.33;76.17;;
45651;Laerm;31365;48.858;8.530;2023-03-16T15:13:31;65.95;45.54;80.87;;
45651;Laerm;31365;48.858;8.530;2023-03-16T15:16:20;64.50;41.06;79.59;;
45651;Laerm;31365;48.858;8.530;2023-03-16T15:18:49;64.07;42.35;77.83;;
45651;Laerm;31365;48.858;8.530;2023-03-16T15:21:20;62.39;42.98;74.45;;
45651;Laerm;31365;48.858;8.530;2023-03-16T15:23:51;62.06;41.33;73.64;;
45651;Laerm;31365;48.858;8.530;2023-03-16T15:26:23;64.20;44.11;75.46;;
45651;Laerm;31365;48.858;8.530;2023-03-16T15:28:53;62.14;42.41;76.31;;
45651;Laerm;31365;48.858;8.530;2023-03-16T15:31:21;63.03;43.14;80.19;;
45651;Laerm;31365;48.858;8.530;2023-03-16T15:33:49;62.80;41.46;73.65;;
45651;Laerm;31365;48.858;8.530;2023-03-16T15:36:20;66.23;46.10;86.90;;
45651;Laerm;31365;48.858;8.530;2023-03-16T15:38:49;65.41;45.30;90.69;;
45651;Laerm;31365;48.858;8.530;2023-03-16T15:41:18;64.22;42.22;77.52;;
45651;Laerm;31365;48.858;8.530;2023-03-16T15:43:48;64.64;42.93;81.34;;
45651;Laerm;31365;48.858;8.530;2023-03-16T15:46:18;63.76;41.68;76.64;;
45651;Laerm;31365;48.858;8.530;2023-03-16T15:48:46;65.94;42.22;87.56;;
45651;Laerm;31365;48.858;8.530;2023-03-16T15:51:19;69.29;47.54;90.18;;
45651;Laerm;31365;48.858;8.530;2023-03-16T15:53:50;62.63;42.22;77.03;;
45651;Laerm;31365;48.858;8.530;2023-03-16T15:56:21;63.81;42.90;77.76;;
45651;Laerm;31365;48.858;8.530;2023-03-16T15:58:58;64.05;44.62;75.48;;
45651;Laerm;31365;48.858;8.530;2023-03-16T16:01:29;64.53;45.72;76.00;;
45651;Laerm;31365;48.858;8.530;2023-03-16T16:03:57;61.71;42.06;75.77;;
45651;Laerm;31365;48.858;8.530;2023-03-16T16:06:26;63.84;44.83;78.12;;
45651;Laerm;31365;48.858;8.530;2023-03-16T16:08:56;69.42;56.13;84.57;;
45651;Laerm;31365;48.858;8.530;2023-03-16T16:11:25;65.75;44.51;78.72;;
45651;Laerm;31365;48.858;8.530;2023-03-16T16:13:55;64.91;43.49;82.87;;
45651;Laerm;31365;48.858;8.530;2023-03-16T16:16:27;64.88;47.59;77.30;;
45651;Laerm;31365;48.858;8.530;2023-03-16T16:18:56;64.50;44.19;82.05;;
45651;Laerm;31365;48.858;8.530;2023-03-16T16:21:26;63.65;42.65;75.76;;
45651;Laerm;31365;48.858;8.530;2023-03-16T16:23:57;64.06;43.39;75.01;;
45651;Laerm;31365;48.858;8.530;2023-03-16T16:26:29;63.90;41.38;77.75;;
45651;Laerm;31365;48.858;8.530;2023-03-16T16:29:18;62.05;40.80;76.23;;
45651;Laerm;31365;48.858;8.530;2023-03-16T16:31:49;64.46;42.22;80.58;;
45651;Laerm;31365;48.858;8.530;2023-03-16T16:34:19;67.26;42.29;83.34;;
45651;Laerm;31365;48.858;8.530;2023-03-16T16:36:50;64.00;43.24;76.16;;
45651;Laerm;31365;48.858;8.530;2023-03-16T16:39:18;63.95;45.72;76.77;;
45651;Laerm;31365;48.858;8.530;2023-03-16T16:41:47;66.05;46.52;83.48;;
45651;Laerm;31365;48.858;8.530;2023-03-16T16:44:20;64.10;42.93;76.10;;
45651;Laerm;31365;48.858;8.530;2023-03-16T16:46:52;65.81;43.49;82.96;;
45651;Laerm;31365;48.858;8.530;2023-03-16T16:49:23;65.00;44.90;75.05;;
45651;Laerm;31365;48.858;8.530;2023-03-16T16:51:52;65.57;40.43;81.74;;
45651;Laerm;31365;48.858;8.530;2023-03-16T16:54:24;64.38;42.71;81.13;;
45651;Laerm;31365;48.858;8.530;2023-03-16T16:56:55;62.60;42.71;73.11;;
45651;Laerm;31365;48.858;8.530;2023-03-16T16:59:27;62.19;42.16;76.21;;
45651;Laerm;31365;48.858;8.530;2023-03-16T17:01:59;62.02;41.75;74.58;;
45651;Laerm;31365;48.858;8.530;2023-03-16T17:04:28;63.79;43.39;75.43;;
45651;Laerm;31365;48.858;8.530;2023-03-16T17:06:59;63.09;42.88;73.90;;
45651;Laerm;31365;48.858;8.530;2023-03-16T17:09:29;63.13;44.65;74.67;;
45651;Laerm;31365;48.858;8.530;2023-03-16T17:11:59;63.95;43.04;82.32;;
45651;Laerm;31365;48.858;8.530;2023-03-16T17:14:28;63.65;42.79;75.68;;
45651;Laerm;31365;48.858;8.530;2023-03-16T17:17:00;62.60;44.58;75.73;;
45651;Laerm;31365;48.858;8.530;2023-03-16T17:19:29;65.49;44.11;76.44;;
45651;Laerm;31365;48.858;8.530;2023-03-16T17:21:57;65.49;44.11;76.44;;
45651;Laerm;31365;48.858;8.530;2023-03-16T17:24:26;67.29;44.11;82.18;;
45651;Laerm;31365;48.858;8.530;2023-03-16T17:26:58;64.24;42.98;81.60;;
45651;Laerm;31365;48.858;8.530;2023-03-16T17:29:31;63.06;42.00;79.66;;
45651;Laerm;31365;48.858;8.530;2023-03-16T17:32:03;62.88;40.89;75.78;;
45651;Laerm;31365;48.858;8.530;2023-03-16T17:34:34;60.12;40.43;74.29;;
45651;Laerm;31365;48.858;8.530;2023-03-16T17:37:05;63.17;43.72;76.14;;
45651;Laerm;31365;48.858;8.530;2023-03-16T17:39:34;64.02;42.88;79.17;;
45651;Laerm;31365;48.858;8.530;2023-03-16T17:42:05;65.50;42.82;83.87;;
45651;Laerm;31365;48.858;8.530;2023-03-16T17:44:41;73.37;43.63;93.80;;
45651;Laerm;31365;48.858;8.530;2023-03-16T17:47:14;61.40;40.71;77.36;;
45651;Laerm;31365;48.858;8.530;2023-03-16T17:49:43;64.33;42.35;77.62;;
45651;Laerm;31365;48.858;8.530;2023-03-16T17:52:17;63.07;41.38;79.44;;
45651;Laerm;31365;48.858;8.530;2023-03-16T17:54:46;62.79;42.29;78.78;;
45651;Laerm;31365;48.858;8.530;2023-03-16T17:57:18;62.07;41.41;75.47;;
45651;Laerm;31365;48.858;8.530;2023-03-16T17:59:48;64.20;43.68;80.21;;
45651;Laerm;31365;48.858;8.530;2023-03-16T18:02:39;62.12;42.35;76.59;;
45651;Laerm;31365;48.858;8.530;2023-03-16T18:05:17;62.97;41.06;76.71;;
45651;Laerm;31365;48.858;8.530;2023-03-16T18:07:46;61.18;38.95;76.48;;
45651;Laerm;31365;48.858;8.530;2023-03-16T18:10:16;57.11;38.67;74.48;;
45651;Laerm;31365;48.858;8.530;2023-03-16T18:12:51;61.65;40.53;78.12;;
45651;Laerm;31365;48.858;8.530;2023-03-16T18:15:24;60.52;40.62;74.08;;
45651;Laerm;31365;48.858;8.530;2023-03-16T18:17:54;62.00;41.38;75.94;;
45651;Laerm;31365;48.858;8.530;2023-03-16T18:20:28;60.42;39.92;75.52;;
45651;Laerm;31365;48.858;8.530;2023-03-16T18:23:11;63.30;41.06;87.95;;
45651;Laerm;31365;48.858;8.530;2023-03-16T18:25:41;61.01;39.46;77.81;;
45651;Laerm;31365;48.858;8.530;2023-03-16T18:28:11;63.05;40.98;76.93;;
45651;Laerm;31365;48.858;8.530;2023-03-16T18:30:43;61.13;42.47;77.51;;
45651;Laerm;31365;48.858;8.530;2023-03-16T18:33:23;60.61;40.80;77.33;;
45651;Laerm;31365;48.858;8.530;2023-03-16T18:35:55;63.59;42.35;78.14;;
45651;Laerm;31365;48.858;8.530;2023-03-16T18:38:28;62.99;40.62;76.24;;
45651;Laerm;31365;48.858;8.530;2023-03-16T18:40:59;53.04;40.53;68.35;;
45651;Laerm;31365;48.858;8.530;2023-03-16T18:43:28;61.82;41.46;78.12;;
45651;Laerm;31365;48.858;8.530;2023-03-16T18:45:56;57.62;38.81;72.18;;
45651;Laerm;31365;48.858;8.530;2023-03-16T18:50:58;60.43;39.08;79.21;;
45651;Laerm;31365;48.858;8.530;2023-03-16T18:53:27;61.52;40.88;75.82;;
45651;Laerm;31365;48.858;8.530;2023-03-16T18:55:56;62.29;41.68;78.92;;
45651;Laerm;31365;48.858;8.530;2023-03-16T18:58:25;59.66;40.43;73.30;;
45651;Laerm;31365;48.858;8.530;2023-03-16T19:00:56;61.93;40.13;76.92;;
45651;Laerm;31365;48.858;8.530;2023-03-16T19:03:29;61.55;39.21;77.87;;
45651;Laerm;31365;48.858;8.530;2023-03-16T19:05:59;60.29;38.67;77.59;;
45651;Laerm;31365;48.858;8.530;2023-03-16T19:08:30;65.04;39.34;88.52;;
45651;Laerm;31365;48.858;8.530;2023-03-16T19:11:01;58.48;37.70;76.95;;
45651;Laerm;31365;48.858;8.530;2023-03-16T19:13:30;62.60;41.68;78.48;;
45651;Laerm;31365;48.858;8.530;2023-03-16T19:15:58;59.07;38.95;71.92;;
45651;Laerm;31365;48.858;8.530;2023-03-16T19:18:32;63.77;40.98;80.90;;
45651;Laerm;31365;48.858;8.530;2023-03-16T19:21:15;60.42;39.08;78.29;;
45651;Laerm;31365;48.858;8.530;2023-03-16T19:23:50;59.39;40.03;75.40;;
45651;Laerm;31365;48.858;8.530;2023-03-16T19:26:20;59.07;40.80;73.56;;
45651;Laerm;31365;48.858;8.530;2023-03-16T19:28:48;61.19;39.57;78.24;;
45651;Laerm;31365;48.858;8.530;2023-03-16T19:31:20;57.85;38.95;76.10;;
45651;Laerm;31365;48.858;8.530;2023-03-16T19:33:51;63.25;41.75;78.03;;
45651;Laerm;31365;48.858;8.530;2023-03-16T19:36:23;58.66;39.08;73.43;;
45651;Laerm;31365;48.858;8.530;2023-03-16T19:38:53;61.69;40.33;73.40;;
45651;Laerm;31365;48.858;8.530;2023-03-16T19:41:25;59.33;38.52;76.12;;
45651;Laerm;31365;48.858;8.530;2023-03-16T19:44:00;58.44;37.32;76.20;;
45651;Laerm;31365;48.858;8.530;2023-03-16T19:46:31;52.58;38.52;72.02;;
45651;Laerm;31365;48.858;8.530;2023-03-16T19:49:01;61.03;40.63;75.18;;
45651;Laerm;31365;48.858;8.530;2023-03-16T19:51:29;55.63;38.05;71.84;;
45651;Laerm;31365;48.858;8.530;2023-03-16T19:53:59;58.00;39.46;72.36;;
45651;Laerm;31365;48.858;8.530;2023-03-16T19:56:28;52.81;38.05;70.22;;
45651;Laerm;31365;48.858;8.530;2023-03-16T19:58:57;59.95;39.08;77.38;;
45651;Laerm;31365;48.858;8.530;2023-03-16T20:01:30;53.76;38.21;71.26;;
45651;Laerm;31365;48.858;8.530;2023-03-16T20:04:01;55.73;38.95;73.46;;
45651;Laerm;31365;48.858;8.530;2023-03-16T20:06:31;61.86;38.81;79.40;;
45651;Laerm;31365;48.858;8.530;2023-03-16T20:09:00;53.56;38.52;71.08;;
45651;Laerm;31365;48.858;8.530;2023-03-16T20:11:30;60.95;40.43;74.53;;
45651;Laerm;31365;48.858;8.530;2023-03-16T20:13:59;60.15;38.87;75.85;;
45651;Laerm;31365;48.858;8.530;2023-03-16T20:16:32;63.14;39.46;81.08;;
45651;Laerm;31365;48.858;8.530;2023-03-16T20:19:11;57.47;39.08;74.08;;
45651;Laerm;31365;48.858;8.530;2023-03-16T20:21:41;55.75;37.88;72.21;;
45651;Laerm;31365;48.858;8.530;2023-03-16T20:24:14;59.43;39.34;75.88;;
45651;Laerm;31365;48.858;8.530;2023-03-16T20:26:45;58.53;38.37;76.08;;
45651;Laerm;31365;48.858;8.530;2023-03-16T20:29:21;54.44;38.52;72.17;;
45651;Laerm;31365;48.858;8.530;2023-03-16T20:31:52;57.45;36.91;77.36;;
45651;Laerm;31365;48.858;8.530;2023-03-16T20:36:53;58.31;38.37;74.71;;
45651;Laerm;31365;48.858;8.530;2023-03-16T20:39:22;59.77;39.46;76.57;;
45651;Laerm;31365;48.858;8.530;2023-03-16T20:41:50;52.88;37.88;71.41;;
45651;Laerm;31365;48.858;8.530;2023-03-16T20:44:21;55.60;40.23;72.91;;
45651;Laerm;31365;48.858;8.530;2023-03-16T20:46:51;57.19;39.58;75.25;;
45651;Laerm;31365;48.858;8.530;2023-03-16T20:49:31;56.03;40.80;72.26;;
45651;Laerm;31365;48.858;8.530;2023-03-16T20:52:00;61.54;39.08;79.48;;
45651;Laerm;31365;48.858;8.530;2023-03-16T20:54:29;55.68;37.70;75.07;;
45651;Laerm;31365;48.858;8.530;2023-03-16T20:56:58;55.44;36.69;72.03;;
45651;Laerm;31365;48.858;8.530;2023-03-16T20:59:27;57.78;38.37;76.68;;
45651;Laerm;31365;48.858;8.530;2023-03-16T21:01:57;50.64;37.32;68.79;;
45651;Laerm;31365;48.858;8.530;2023-03-16T21:04:27;59.78;38.02;74.37;;
45651;Laerm;31365;48.858;8.530;2023-03-16T21:06:57;52.12;37.70;71.29;;
45651;Laerm;31365;48.858;8.530;2023-03-16T21:09:26;54.62;37.32;75.77;;
45651;Laerm;31365;48.858;8.530;2023-03-16T21:11:57;56.76;38.21;76.75;;
45651;Laerm;31365;48.858;8.530;2023-03-16T21:14:25;59.26;37.70;76.22;;
45651;Laerm;31365;48.858;8.530;2023-03-16T21:16:53;58.99;38.21;76.58;;
45651;Laerm;31365;48.858;8.530;2023-03-16T21:19:22;59.88;38.81;74.80;;
45651;Laerm;31365;48.858;8.530;2023-03-16T21:21:51;60.44;40.89;75.92;;
45651;Laerm;31365;48.858;8.530;2023-03-16T21:24:21;59.79;38.52;83.46;;
45651;Laerm;31365;48.858;8.530;2023-03-16T21:26:49;59.85;39.92;80.00;;
45651;Laerm;31365;48.858;8.530;2023-03-16T21:29:19;59.59;39.08;75.39;;
45651;Laerm;31365;48.858;8.530;2023-03-16T21:31:48;58.95;37.70;77.96;;
45651;Laerm;31365;48.858;8.530;2023-03-16T21:34:23;58.33;37.32;76.89;;
45651;Laerm;31365;48.858;8.530;2023-03-16T21:36:52;60.34;37.52;75.27;;
45651;Laerm;31365;48.858;8.530;2023-03-16T21:39:22;60.59;36.69;79.80;;
45651;Laerm;31365;48.858;8.530;2023-03-16T21:41:51;58.29;38.52;78.23;;
45651;Laerm;31365;48.858;8.530;2023-03-16T21:44:20;60.14;39.46;75.71;;
45651;Laerm;31365;48.858;8.530;2023-03-16T21:46:48;55.72;35.36;72.04;;
45651;Laerm;31365;48.858;8.530;2023-03-16T21:49:17;53.23;37.70;72.16;;
45651;Laerm;31365;48.858;8.530;2023-03-16T21:51:47;56.42;36.45;73.12;;
45651;Laerm;31365;48.858;8.530;2023-03-16T21:54:16;56.74;36.45;75.64;;
45651;Laerm;31365;48.858;8.530;2023-03-16T21:56:46;57.68;36.20;72.58;;
45651;Laerm;31365;48.858;8.530;2023-03-16T21:59:16;57.35;36.20;73.18;;
45651;Laerm;31365;48.858;8.530;2023-03-16T22:01:44;60.09;31.68;78.81;;
45651;Laerm;31365;48.858;8.530;2023-03-16T22:04:27;52.81;36.69;74.65;;
45651;Laerm;31365;48.858;8.530;2023-03-16T22:06:57;57.26;35.94;75.65;;
45651;Laerm;31365;48.858;8.530;2023-03-16T22:09:31;59.57;38.05;75.37;;
45651;Laerm;31365;48.858;8.530;2023-03-16T22:12:00;56.23;38.21;74.81;;
45651;Laerm;31365;48.858;8.530;2023-03-16T22:15:22;54.12;35.66;72.44;;
45651;Laerm;31365;48.858;8.530;2023-03-16T22:18:06;50.55;36.10;69.94;;
45651;Laerm;31365;48.858;8.530;2023-03-16T22:20:35;53.09;35.04;71.77;;
45651;Laerm;31365;48.858;8.530;2023-03-16T22:23:05;51.73;38.05;69.75;;
45651;Laerm;31365;48.858;8.530;2023-03-16T22:25:33;56.92;35.94;77.04;;
45651;Laerm;31365;48.858;8.530;2023-03-16T22:28:10;52.04;35.36;72.85;;